Time;durP1;ratioP1;P1;durP2;ratioP2;P2;SDS_P1;SDS_P2;PMS_P1;PMS_P2;Temp;Humidity;BMP_temperature;BMP_pressure;BME280_temperature;BME280_humidity;BME280_pressure;Samples;Min_cycle;Max_cycle;Signal;HPM_P1;HPM_P2
2021/12/22 00:00:50;;;;;;;;;;;-4.60;99.90;;;;;;4996453;28;20288;-78
2021/12/22 00:03:17;;;;;;;;;;;-4.60;99.90;;;;;;4999495;28;19928;-78
2021/12/22 00:05:45;;;;;;;;;;;-4.60;99.90;;;;;;5032244;28;19928;-78
2021/12/22 00:08:13;;;;;;;;;;;-4.70;99.90;;;;;;4980076;28;19928;-78
2021/12/22 00:10:42;;;;;;;;;;;-4.70;99.90;;;;;;4976714;28;19929;-78
2021/12/22 00:13:07;;;;;;;;;;;-4.70;99.90;;;;;;5002285;28;19930;-78
2021/12/22 00:15:33;;;;;;;;;;;-4.70;99.90;;;;;;5032451;28;20082;-77
2021/12/22 00:17:58;;;;;;;;;;;-4.70;99.90;;;;;;5031994;28;19921;-78
2021/12/22 00:20:24;;;;;;;;;;;-4.70;99.90;;;;;;5032172;28;19994;-78
2021/12/22 00:22:50;;;;;;;;;;;-4.70;99.90;;;;;;5022189;28;19925;-77
2021/12/22 00:25:16;;;;;;;;;;;-4.70;99.90;;;;;;5027574;28;19921;-77
2021/12/22 00:27:41;;;;;;;;;;;-4.70;99.90;;;;;;4985708;28;19921;-77
2021/12/22 00:30:07;;;;;;;;;;;-4.60;99.90;;;;;;5031509;28;19921;-77
2021/12/22 00:32:35;;;;;;;;;;;-4.60;99.90;;;;;;5014694;28;19979;-78
2021/12/22 00:35:01;;;;;;;;;;;-4.60;99.90;;;;;;5029309;28;19956;-78
2021/12/22 00:37:28;;;;;;;;;;;-4.60;99.90;;;;;;5011843;28;19972;-78
2021/12/22 00:39:54;;;;;;;;;;;-4.60;99.90;;;;;;5015832;28;19925;-77
2021/12/22 00:42:20;;;;;;;;;;;-4.60;99.90;;;;;;5015084;28;19980;-77
2021/12/22 00:44:47;;;;;;;;;;;-4.70;99.90;;;;;;5031675;28;19984;-78
2021/12/22 00:47:12;;;;;;;;;;;-4.70;99.90;;;;;;4983997;28;19921;-78
2021/12/22 00:49:38;;;;;;;;;;;-4.70;99.90;;;;;;4980116;28;20056;-77
2021/12/22 00:52:03;;;;;;;;;;;-4.70;99.90;;;;;;5014808;28;19921;-77
2021/12/22 00:54:29;;;;;;;;;;;-4.80;99.90;;;;;;5031127;28;19927;-78
2021/12/22 00:57:01;;;;;;;;;;;-4.70;99.90;;;;;;5013937;28;20012;-78
2021/12/22 00:59:26;;;;;;;;;;;-4.70;99.90;;;;;;4995292;28;19969;-78
2021/12/22 01:01:52;;;;;;;;;;;-4.70;99.90;;;;;;5031200;28;20393;-77
2021/12/22 01:04:18;;;;;;;;;;;-4.70;99.90;;;;;;5014582;28;19925;-78
2021/12/22 01:06:44;;;;;;;;;;;-4.80;99.90;;;;;;4999274;28;20439;-78
2021/12/22 01:09:09;;;;;;;;;;;-4.80;99.90;;;;;;5011500;28;19925;-78
2021/12/22 01:11:35;;;;;;;;;;;-4.90;99.90;;;;;;5008380;28;19921;-78
2021/12/22 01:14:01;;;;;;;;;;;-4.90;99.90;;;;;;5024395;28;19928;-78
2021/12/22 01:16:27;;;;;;;;;;;-5.00;99.90;;;;;;4978269;28;20378;-78
2021/12/22 01:18:52;;;;;;;;;;;-5.00;99.90;;;;;;5011300;28;19921;-77
2021/12/22 01:21:25;;;;;;;;;;;-5.10;99.90;;;;;;5009472;28;19932;-78
2021/12/22 01:24:09;;;;;;;;;;;-5.10;99.90;;;;;;5002883;28;19967;-77
2021/12/22 01:26:40;;;;;;;;;;;-5.10;99.90;;;;;;4998551;28;19980;-77
2021/12/22 01:29:05;;;;;;;;;;;-5.00;99.90;;;;;;4975453;28;19969;-77
2021/12/22 01:31:31;;;;;;;;;;;-5.00;99.90;;;;;;5027351;28;19964;-77
2021/12/22 01:33:56;;;;;;;;;;;-5.10;99.90;;;;;;5030659;28;19979;-77
2021/12/22 01:36:22;;;;;;;;;;;-5.10;99.90;;;;;;4991813;28;19926;-78
2021/12/22 01:38:48;;;;;;;;;;;-5.10;99.90;;;;;;5023711;28;19926;-77
2021/12/22 01:41:13;;;;;;;;;;;-5.20;99.90;;;;;;5024451;28;19930;-78
2021/12/22 01:43:39;;;;;;;;;;;-5.10;99.90;;;;;;5011651;28;19925;-78
2021/12/22 01:46:32;;;;;;;;;;;-5.20;99.90;;;;;;5025470;28;20331;-77
2021/12/22 01:49:10;;;;;;;;;;;-5.20;99.90;;;;;;5014896;28;19921;-78
2021/12/22 01:51:55;;;;;;;;;;;-5.20;99.90;;;;;;4998524;28;19978;-78
2021/12/22 01:54:24;;;;;;;;;;;-5.20;99.90;;;;;;4994785;28;20342;-78
2021/12/22 01:56:52;;;;;;;;;;;-5.20;99.90;;;;;;4979023;28;20386;-77
2021/12/22 01:59:20;;;;;;;;;;;-5.20;99.90;;;;;;5032813;28;19928;-77
2021/12/22 02:01:46;;;;;;;;;;;-5.20;99.90;;;;;;5017946;28;19924;-77
2021/12/22 02:04:12;;;;;;;;;;;-5.20;99.90;;;;;;5009231;28;19983;-78
2021/12/22 02:06:38;;;;;;;;;;;-5.20;99.90;;;;;;5015013;28;20342;-78
2021/12/22 02:09:04;;;;;;;;;;;-5.20;99.90;;;;;;5014669;28;19975;-78
2021/12/22 02:11:29;;;;;;;;;;;-5.20;99.90;;;;;;5012775;28;19922;-78
2021/12/22 02:13:59;;;;;;;;;;;-5.20;99.90;;;;;;4993540;28;19922;-78
2021/12/22 02:16:28;;;;;;;;;;;-5.20;99.90;;;;;;5011231;28;19926;-77
2021/12/22 02:18:55;;;;;;;;;;;-5.20;99.90;;;;;;5008856;28;19921;-78
2021/12/22 02:21:22;;;;;;;;;;;-5.20;99.90;;;;;;4978635;28;20002;-77
2021/12/22 02:23:48;;;;;;;;;;;-5.20;99.90;;;;;;4980055;28;19937;-77
2021/12/22 02:26:22;;;;;;;;;;;-5.20;99.90;;;;;;5004792;28;19921;-77
2021/12/22 02:28:56;;;;;;;;;;;-5.20;99.90;;;;;;5014582;28;19964;-78
2021/12/22 02:31:22;;;;;;;;;;;-5.20;99.90;;;;;;5014244;28;19976;-77
2021/12/22 02:33:50;;;;;;;;;;;-5.10;99.90;;;;;;5013150;28;19933;-77
2021/12/22 02:38:46;;;;;;;;;;;-5.10;99.90;;;;;;5020731;28;19922;-77
2021/12/22 02:41:13;;;;;;;;;;;-5.10;99.90;;;;;;4995126;28;19922;-78
2021/12/22 02:43:52;;;;;;;;;;;-5.10;99.90;;;;;;4994406;28;19928;-78
2021/12/22 02:46:20;;;;;;;;;;;-5.10;99.90;;;;;;5034217;28;19956;-77
2021/12/22 02:48:46;;;;;;;;;;;-5.20;99.90;;;;;;5017188;28;19921;-78
2021/12/22 02:51:11;;;;;;;;;;;-5.20;99.90;;;;;;5033851;28;19948;-78
2021/12/22 02:53:42;;;;;;;;;;;-5.20;99.90;;;;;;5009810;28;19922;-78
2021/12/22 02:56:25;;;;;;;;;;;-5.20;99.90;;;;;;5010827;28;19926;-78
2021/12/22 03:01:41;;;;;;;;;;;-5.20;99.90;;;;;;5027247;28;20356;-79
2021/12/22 03:04:11;;;;;;;;;;;-5.20;99.90;;;;;;5022789;28;20416;-77
2021/12/22 03:07:07;;;;;;;;;;;-5.20;99.90;;;;;;4994256;28;19922;-77
2021/12/22 03:09:28;;;;;;;;;;;-5.20;99.90;;;;;;4993701;28;20267;-77
2021/12/22 03:11:55;;;;;;;;;;;-5.20;99.90;;;;;;5026503;28;19922;-77
2021/12/22 03:14:21;;;;;;;;;;;-5.20;99.90;;;;;;4978083;28;19921;-77
2021/12/22 03:16:48;;;;;;;;;;;-5.20;99.90;;;;;;4977451;28;19932;-77
2021/12/22 03:19:17;;;;;;;;;;;-5.20;99.90;;;;;;4977474;28;20409;-77
2021/12/22 03:21:44;;;;;;;;;;;-5.20;99.90;;;;;;5010301;28;19922;-77
2021/12/22 03:24:11;;;;;;;;;;;-5.30;99.90;;;;;;5009420;28;19922;-77
2021/12/22 03:26:44;;;;;;;;;;;-5.30;99.90;;;;;;5009937;28;19954;-77
2021/12/22 03:29:10;;;;;;;;;;;-5.30;99.90;;;;;;5010158;28;19922;-77
2021/12/22 03:31:35;;;;;;;;;;;-5.30;99.90;;;;;;4977254;28;19922;-77
2021/12/22 03:34:01;;;;;;;;;;;-5.30;99.90;;;;;;5025073;28;20016;-77
2021/12/22 03:36:26;;;;;;;;;;;-5.40;99.90;;;;;;4993439;28;19926;-76
2021/12/22 03:38:52;;;;;;;;;;;-5.40;99.90;;;;;;5009753;28;19960;-78
2021/12/22 03:41:17;;;;;;;;;;;-5.40;99.90;;;;;;4993390;28;20029;-78
2021/12/22 03:43:43;;;;;;;;;;;-5.40;99.90;;;;;;4978215;28;19984;-77
2021/12/22 03:46:08;;;;;;;;;;;-5.40;99.90;;;;;;5003837;28;20012;-78
2021/12/22 03:48:34;;;;;;;;;;;-5.40;99.90;;;;;;5025952;28;19922;-77
2021/12/22 03:50:59;;;;;;;;;;;-5.40;99.90;;;;;;5025894;28;19922;-77
2021/12/22 03:53:25;;;;;;;;;;;-5.40;99.90;;;;;;5027234;28;20305;-78
2021/12/22 03:55:50;;;;;;;;;;;-5.40;99.90;;;;;;5010230;28;20531;-78
2021/12/22 03:58:16;;;;;;;;;;;-5.40;99.90;;;;;;5032701;28;20373;-77
2021/12/22 04:00:42;;;;;;;;;;;-5.40;99.90;;;;;;5016085;28;19929;-77
2021/12/22 04:03:17;;;;;;;;;;;-5.40;99.90;;;;;;5031984;28;19925;-77
2021/12/22 04:05:44;;;;;;;;;;;-5.40;99.90;;;;;;5008426;28;19922;-77
2021/12/22 04:08:11;;;;;;;;;;;-5.40;99.90;;;;;;4976742;28;19928;-77
2021/12/22 04:10:36;;;;;;;;;;;-5.40;99.90;;;;;;4992470;28;19929;-78
2021/12/22 04:13:02;;;;;;;;;;;-5.40;99.90;;;;;;4990204;28;20304;-78
2021/12/22 04:15:28;;;;;;;;;;;-5.40;99.90;;;;;;5012552;28;19930;-77
2021/12/22 04:17:54;;;;;;;;;;;-5.30;99.90;;;;;;4995864;28;20405;-77
2021/12/22 04:20:19;;;;;;;;;;;-5.40;99.90;;;;;;5012209;28;19976;-77
2021/12/22 04:22:45;;;;;;;;;;;-5.40;99.90;;;;;;5016482;28;20385;-78
2021/12/22 04:25:10;;;;;;;;;;;-5.30;99.90;;;;;;5014971;28;19929;-77
2021/12/22 04:27:37;;;;;;;;;;;-5.30;99.90;;;;;;5012096;28;19930;-78
2021/12/22 04:30:04;;;;;;;;;;;-5.30;99.90;;;;;;4985018;28;19929;-78
2021/12/22 04:32:29;;;;;;;;;;;-5.30;99.90;;;;;;4980137;28;19945;-78
2021/12/22 04:34:55;;;;;;;;;;;-5.40;99.90;;;;;;5017139;28;19921;-77
2021/12/22 04:37:20;;;;;;;;;;;-5.40;99.90;;;;;;4995455;28;19973;-77
2021/12/22 04:39:46;;;;;;;;;;;-5.40;99.90;;;;;;4995753;28;19929;-77
2021/12/22 04:42:11;;;;;;;;;;;-5.50;99.90;;;;;;4990446;28;19922;-78
2021/12/22 04:44:37;;;;;;;;;;;-5.50;99.90;;;;;;5015114;28;19921;-77
2021/12/22 04:47:03;;;;;;;;;;;-5.50;99.90;;;;;;4980039;28;20336;-77
2021/12/22 04:49:28;;;;;;;;;;;-5.50;99.90;;;;;;4995461;28;19984;-77
2021/12/22 04:51:55;;;;;;;;;;;-5.50;99.90;;;;;;5011635;28;20336;-77
2021/12/22 04:56:52;;;;;;;;;;;-5.50;99.90;;;;;;5010312;28;19926;-77
2021/12/22 04:59:18;;;;;;;;;;;-5.50;99.90;;;;;;4991970;28;19926;-77
2021/12/22 05:01:44;;;;;;;;;;;-5.50;99.90;;;;;;4992050;28;19984;-77
2021/12/22 05:04:10;;;;;;;;;;;-5.50;99.90;;;;;;4976030;28;19921;-77
2021/12/22 05:06:35;;;;;;;;;;;-5.50;99.90;;;;;;4976106;28;19925;-77
2021/12/22 05:09:02;;;;;;;;;;;-5.50;99.90;;;;;;4975638;28;19930;-77
2021/12/22 05:11:27;;;;;;;;;;;-5.50;99.90;;;;;;4975799;28;19921;-78
2021/12/22 05:13:53;;;;;;;;;;;-5.50;99.90;;;;;;4976331;28;20017;-77
2021/12/22 05:16:19;;;;;;;;;;;-5.50;99.90;;;;;;4991609;28;19932;-77
2021/12/22 05:18:52;;;;;;;;;;;-5.50;99.90;;;;;;5009072;28;19925;-77
2021/12/22 05:21:20;;;;;;;;;;;-5.50;99.90;;;;;;5011557;28;19922;-78
2021/12/22 05:23:46;;;;;;;;;;;-5.50;99.90;;;;;;4993793;28;19928;-78
2021/12/22 05:26:12;;;;;;;;;;;-5.50;99.90;;;;;;4994475;28;19922;-78
2021/12/22 05:28:37;;;;;;;;;;;-5.50;99.90;;;;;;5026624;28;19925;-78
2021/12/22 05:31:02;;;;;;;;;;;-5.40;99.90;;;;;;5031027;28;20008;-78
2021/12/22 05:33:28;;;;;;;;;;;-5.40;99.90;;;;;;5028576;28;19923;-78
2021/12/22 05:35:53;;;;;;;;;;;-5.40;99.90;;;;;;4994783;28;20305;-78
2021/12/22 05:38:19;;;;;;;;;;;-5.40;99.90;;;;;;5023890;28;19921;-78
2021/12/22 05:40:44;;;;;;;;;;;-5.30;99.90;;;;;;4998686;28;19928;-78
2021/12/22 05:43:10;;;;;;;;;;;-5.30;99.90;;;;;;5010488;28;19965;-78
2021/12/22 05:45:35;;;;;;;;;;;-5.30;99.90;;;;;;4994255;28;20289;-78
2021/12/22 05:48:01;;;;;;;;;;;-5.30;99.90;;;;;;5020871;28;19957;-78
2021/12/22 05:50:26;;;;;;;;;;;-5.30;99.90;;;;;;5030618;28;19921;-78
2021/12/22 05:52:52;;;;;;;;;;;-5.30;99.90;;;;;;5028636;28;19921;-78
2021/12/22 05:55:18;;;;;;;;;;;-5.30;99.90;;;;;;5001603;28;20043;-78
2021/12/22 05:57:44;;;;;;;;;;;-5.30;99.90;;;;;;5010893;28;19957;-78
2021/12/22 06:00:09;;;;;;;;;;;-5.30;99.90;;;;;;4994476;28;20274;-78
2021/12/22 06:02:35;;;;;;;;;;;-5.30;99.90;;;;;;4997602;28;19921;-78
2021/12/22 06:05:00;;;;;;;;;;;-5.40;99.90;;;;;;5015502;28;20012;-78
2021/12/22 06:07:26;;;;;;;;;;;-5.40;99.90;;;;;;5010793;28;20377;-78
2021/12/22 06:09:51;;;;;;;;;;;-5.40;99.90;;;;;;4988204;28;20287;-78
2021/12/22 06:12:16;;;;;;;;;;;-5.40;99.90;;;;;;5026096;28;19929;-78
2021/12/22 06:14:42;;;;;;;;;;;-5.40;99.90;;;;;;5018591;28;19921;-78
2021/12/22 06:17:07;;;;;;;;;;;-5.40;99.90;;;;;;5010552;28;19936;-78
2021/12/22 06:19:33;;;;;;;;;;;-5.40;99.90;;;;;;4994322;28;19928;-78
2021/12/22 06:21:58;;;;;;;;;;;-5.40;99.90;;;;;;4994258;28;19921;-78
2021/12/22 06:24:24;;;;;;;;;;;-5.40;99.90;;;;;;4998562;28;20008;-78
2021/12/22 06:26:49;;;;;;;;;;;-5.40;99.90;;;;;;4991828;28;20071;-78
2021/12/22 06:29:15;;;;;;;;;;;-5.40;99.90;;;;;;4992253;28;19972;-78
2021/12/22 06:31:40;;;;;;;;;;;-5.50;99.90;;;;;;4994772;28;19922;-78
2021/12/22 06:34:06;;;;;;;;;;;-5.40;99.90;;;;;;5006641;28;19921;-78
2021/12/22 06:36:31;;;;;;;;;;;-5.40;99.90;;;;;;5033779;28;20340;-78
2021/12/22 06:38:57;;;;;;;;;;;-5.40;99.90;;;;;;5017425;28;20291;-78
2021/12/22 06:41:22;;;;;;;;;;;-5.40;99.90;;;;;;4997934;28;19991;-78
2021/12/22 06:43:48;;;;;;;;;;;-5.40;99.90;;;;;;5011638;28;19926;-78
2021/12/22 06:46:13;;;;;;;;;;;-5.40;99.90;;;;;;5017259;28;20019;-78
2021/12/22 06:48:38;;;;;;;;;;;-5.40;99.90;;;;;;5033897;28;19928;-78
2021/12/22 06:51:04;;;;;;;;;;;-5.40;99.90;;;;;;5017361;28;20328;-78
2021/12/22 06:53:34;;;;;;;;;;;-5.40;99.90;;;;;;5027272;28;19960;-78
2021/12/22 06:56:00;;;;;;;;;;;-5.50;99.90;;;;;;5007596;28;19925;-77
2021/12/22 06:58:26;;;;;;;;;;;-5.40;99.90;;;;;;4994414;28;20177;-78
2021/12/22 07:00:51;;;;;;;;;;;-5.50;99.90;;;;;;4994035;28;20412;-78
2021/12/22 07:03:17;;;;;;;;;;;-5.50;99.90;;;;;;4994285;28;19921;-78
2021/12/22 07:05:42;;;;;;;;;;;-5.40;99.90;;;;;;4998297;28;19922;-78
2021/12/22 07:08:08;;;;;;;;;;;-5.40;99.90;;;;;;5021710;28;19925;-78
2021/12/22 07:10:33;;;;;;;;;;;-5.50;99.90;;;;;;4996967;28;20396;-78
2021/12/22 07:12:59;;;;;;;;;;;-5.50;99.90;;;;;;5013524;28;20293;-78
2021/12/22 07:15:25;;;;;;;;;;;-5.50;99.90;;;;;;5011898;28;19929;-78
2021/12/22 07:17:50;;;;;;;;;;;-5.50;99.90;;;;;;5015221;28;20407;-78
2021/12/22 07:20:16;;;;;;;;;;;-5.50;99.90;;;;;;5016834;28;19925;-78
2021/12/22 07:22:42;;;;;;;;;;;-5.50;99.90;;;;;;5000975;28;19922;-78
2021/12/22 07:25:08;;;;;;;;;;;-5.50;99.90;;;;;;5012471;28;20488;-77
2021/12/22 07:27:33;;;;;;;;;;;-5.50;99.90;;;;;;5009166;28;19969;-77
2021/12/22 07:29:59;;;;;;;;;;;-5.40;99.90;;;;;;5033170;28;20353;-77
2021/12/22 07:32:24;;;;;;;;;;;-5.40;99.90;;;;;;5026817;28;19925;-77
2021/12/22 07:35:00;;;;;;;;;;;-5.40;99.90;;;;;;4991208;28;20345;-77
2021/12/22 07:37:46;;;;;;;;;;;-5.40;99.90;;;;;;5023152;28;19925;-78
2021/12/22 07:40:16;;;;;;;;;;;-5.30;99.90;;;;;;5016096;28;19951;-78
2021/12/22 07:42:41;;;;;;;;;;;-5.30;99.90;;;;;;4979636;28;19929;-77
2021/12/22 07:45:09;;;;;;;;;;;-5.30;99.90;;;;;;5011838;28;19921;-77
2021/12/22 07:47:34;;;;;;;;;;;-5.30;99.90;;;;;;4990162;28;19921;-77
2021/12/22 07:49:59;;;;;;;;;;;-5.30;99.90;;;;;;5013051;28;19932;-78
2021/12/22 07:52:27;;;;;;;;;;;-5.30;99.90;;;;;;5012788;28;20016;-77
2021/12/22 07:54:56;;;;;;;;;;;-5.20;99.90;;;;;;4994716;28;19921;-78
2021/12/22 07:57:21;;;;;;;;;;;-5.20;99.90;;;;;;5014812;28;20408;-78
2021/12/22 07:59:47;;;;;;;;;;;-5.30;99.90;;;;;;5009987;28;19925;-79
2021/12/22 08:02:12;;;;;;;;;;;-5.20;99.90;;;;;;5002471;28;19920;-79
2021/12/22 08:04:39;;;;;;;;;;;-5.20;99.90;;;;;;5002704;28;19921;-79
2021/12/22 08:07:04;;;;;;;;;;;-5.20;99.90;;;;;;4995551;28;19921;-79
2021/12/22 08:09:30;;;;;;;;;;;-5.20;99.90;;;;;;5009109;28;19928;-79
2021/12/22 08:11:56;;;;;;;;;;;-5.10;99.90;;;;;;5032188;28;20266;-79
2021/12/22 08:14:23;;;;;;;;;;;-5.10;99.90;;;;;;4993778;28;19932;-78
2021/12/22 08:16:49;;;;;;;;;;;-5.10;99.90;;;;;;5027590;28;19926;-79
2021/12/22 08:19:15;;;;;;;;;;;-5.00;99.90;;;;;;5027360;28;19921;-79
2021/12/22 08:21:40;;;;;;;;;;;-5.00;99.90;;;;;;5012134;28;19935;-79
2021/12/22 08:24:06;;;;;;;;;;;-4.90;99.90;;;;;;4992203;28;20378;-79
2021/12/22 08:26:31;;;;;;;;;;;-4.90;99.90;;;;;;5015180;28;19921;-79
2021/12/22 08:28:57;;;;;;;;;;;-4.80;99.90;;;;;;5031990;28;20270;-79
2021/12/22 08:31:22;;;;;;;;;;;-4.80;99.90;;;;;;5015219;28;19975;-79
2021/12/22 08:33:48;;;;;;;;;;;-4.70;99.90;;;;;;5015096;28;20020;-79
2021/12/22 08:39:01;;;;;;;;;;;-4.70;99.90;;;;;;5007110;28;19932;-79
2021/12/22 08:41:31;;;;;;;;;;;-4.60;99.90;;;;;;4977465;28;19976;-77
2021/12/22 08:43:58;;;;;;;;;;;-4.50;99.90;;;;;;4983819;28;20040;-79
2021/12/22 08:46:24;;;;;;;;;;;-4.50;99.90;;;;;;4991978;28;20024;-77
2021/12/22 08:48:50;;;;;;;;;;;-4.40;99.90;;;;;;5017265;28;19921;-78
2021/12/22 08:51:17;;;;;;;;;;;-4.40;99.90;;;;;;5014143;28;21271;-78
2021/12/22 08:53:43;;;;;;;;;;;-4.30;99.90;;;;;;5006735;28;19929;-79
2021/12/22 08:56:08;;;;;;;;;;;-4.30;99.90;;;;;;4991863;28;19933;-80
2021/12/22 08:58:34;;;;;;;;;;;-4.20;99.90;;;;;;5008079;28;19922;-80
2021/12/22 09:01:00;;;;;;;;;;;-4.20;99.90;;;;;;4987713;28;19922;-79
2021/12/22 09:03:25;;;;;;;;;;;-4.10;99.90;;;;;;4992343;28;20297;-80
2021/12/22 09:05:51;;;;;;;;;;;-4.10;99.90;;;;;;4992222;28;19933;-80
2021/12/22 09:08:16;;;;;;;;;;;-4.00;99.90;;;;;;4997512;28;20009;-79
2021/12/22 09:10:42;;;;;;;;;;;-4.00;99.90;;;;;;4975906;28;19972;-80
2021/12/22 09:13:07;;;;;;;;;;;-4.00;99.90;;;;;;4991775;28;19926;-80
2021/12/22 09:15:32;;;;;;;;;;;-4.00;99.90;;;;;;4981310;28;19928;-79
2021/12/22 09:17:58;;;;;;;;;;;-3.90;99.90;;;;;;5027653;28;19921;-79
2021/12/22 09:20:23;;;;;;;;;;;-3.90;99.90;;;;;;5014596;28;19929;-78
2021/12/22 09:22:49;;;;;;;;;;;-3.80;99.90;;;;;;5022683;28;20406;-78
2021/12/22 09:25:15;;;;;;;;;;;-3.80;99.90;;;;;;5010693;28;19928;-78
2021/12/22 09:27:40;;;;;;;;;;;-3.80;99.90;;;;;;4994837;28;19922;-78
2021/12/22 09:30:06;;;;;;;;;;;-3.70;99.90;;;;;;4994815;28;19922;-78
2021/12/22 09:32:32;;;;;;;;;;;-3.70;99.90;;;;;;4995022;28;20032;-78
2021/12/22 09:34:57;;;;;;;;;;;-3.60;99.90;;;;;;5014738;28;20020;-78
2021/12/22 09:37:23;;;;;;;;;;;-3.60;99.90;;;;;;5009215;28;19925;-78
2021/12/22 09:39:49;;;;;;;;;;;-3.50;99.90;;;;;;5030465;28;19929;-79
2021/12/22 09:42:15;;;;;;;;;;;-3.40;99.90;;;;;;4995271;28;19975;-79
2021/12/22 09:44:45;;;;;;;;;;;-3.30;99.90;;;;;;5010223;28;19953;-78
2021/12/22 09:47:12;;;;;;;;;;;-3.20;99.90;;;;;;5001360;28;19961;-78
2021/12/22 09:52:21;;;;;;;;;;;-3.00;99.90;;;;;;4995768;28;19928;-79
2021/12/22 09:54:48;;;;;;;;;;;-2.90;99.90;;;;;;4981742;28;20042;-79
2021/12/22 09:57:16;;;;;;;;;;;-2.80;99.90;;;;;;5023688;28;19932;-78
2021/12/22 09:59:42;;;;;;;;;;;-2.70;99.90;;;;;;5023348;28;20441;-78
2021/12/22 10:02:07;;;;;;;;;;;-2.70;99.90;;;;;;5007347;28;20024;-78
2021/12/22 10:04:33;;;;;;;;;;;-2.70;99.90;;;;;;5027315;28;19931;-79
2021/12/22 10:06:58;;;;;;;;;;;-2.60;99.90;;;;;;5003026;28;19994;-79
2021/12/22 10:09:25;;;;;;;;;;;-2.60;99.90;;;;;;5014613;28;20374;-78
2021/12/22 10:11:51;;;;;;;;;;;-2.50;99.90;;;;;;5014607;28;19921;-82
2021/12/22 10:14:21;;;;;;;;;;;-2.40;99.90;;;;;;4998539;28;20015;-80
2021/12/22 10:16:48;;;;;;;;;;;-2.30;99.90;;;;;;5011030;28;19948;-80
2021/12/22 10:19:13;;;;;;;;;;;-2.10;99.90;;;;;;4979180;28;19965;-81
2021/12/22 10:21:52;;;;;;;;;;;-2.00;99.90;;;;;;4979212;28;19968;-81
2021/12/22 10:24:18;;;;;;;;;;;-1.90;99.90;;;;;;5004111;28;19925;-81
2021/12/22 10:26:43;;;;;;;;;;;-1.70;99.90;;;;;;4984601;28;20045;-80
2021/12/22 10:29:09;;;;;;;;;;;-1.70;99.90;;;;;;4983332;28;20365;-78
2021/12/22 10:31:34;;;;;;;;;;;-1.60;99.90;;;;;;5002633;28;19968;-78
2021/12/22 10:34:03;;;;;;;;;;;-1.50;99.90;;;;;;5011418;28;19922;-79
2021/12/22 10:36:29;;;;;;;;;;;-1.50;99.90;;;;;;4990999;28;19926;-79
2021/12/22 10:38:59;;;;;;;;;;;-1.40;99.90;;;;;;4989000;28;20297;-78
2021/12/22 10:41:27;;;;;;;;;;;-1.40;99.90;;;;;;5037982;28;19921;-78
2021/12/22 10:43:53;;;;;;;;;;;-1.30;99.90;;;;;;5008950;28;20267;-78
2021/12/22 10:46:26;;;;;;;;;;;-1.30;99.90;;;;;;4986774;28;19922;-78
2021/12/22 10:49:23;;;;;;;;;;;-1.30;99.90;;;;;;5011000;28;19972;-78
2021/12/22 10:51:59;;;;;;;;;;;-1.20;99.90;;;;;;5022596;28;19925;-79
2021/12/22 10:54:30;;;;;;;;;;;-1.20;99.90;;;;;;4993294;28;19921;-79
2021/12/22 10:56:57;;;;;;;;;;;-1.20;99.90;;;;;;4994307;28;19926;-79
2021/12/22 10:59:23;;;;;;;;;;;-1.20;99.90;;;;;;5013371;28;19971;-79
2021/12/22 11:01:57;;;;;;;;;;;-1.10;99.90;;;;;;4997637;28;19925;-79
2021/12/22 11:04:31;;;;;;;;;;;-1.10;99.90;;;;;;4994409;28;19921;-79
2021/12/22 11:07:05;;;;;;;;;;;-1.00;99.90;;;;;;5025297;28;19928;-79
2021/12/22 11:09:34;;;;;;;;;;;-1.00;99.90;;;;;;5017117;28;19964;-79
2021/12/22 11:12:03;;;;;;;;;;;-1.00;99.90;;;;;;5096274;22;19925;-77
2021/12/22 11:14:33;;;;;;;;;;;-0.90;99.90;;;;;;5034702;28;19925;-77
2021/12/22 11:17:06;;;;;;;;;;;-0.90;99.90;;;;;;5032042;28;20080;-77
2021/12/22 11:19:53;;;;;;;;;;;-0.90;99.90;;;;;;5036715;28;20015;-76
2021/12/22 11:22:41;;;;;;;;;;;-0.80;99.90;;;;;;5000504;28;20339;-76
2021/12/22 11:25:12;;;;;;;;;;;-0.80;99.90;;;;;;5015422;28;19921;-75
2021/12/22 11:27:41;;;;;;;;;;;-0.60;99.90;;;;;;5012451;28;19971;-77
2021/12/22 11:30:07;;;;;;;;;;;-0.50;99.90;;;;;;5012290;28;19928;-74
2021/12/22 11:32:32;;;;;;;;;;;-0.30;99.90;;;;;;5016670;28;19929;-76
2021/12/22 11:35:02;;;;;;;;;;;-0.10;99.90;;;;;;5010686;28;19921;-75
2021/12/22 11:37:28;;;;;;;;;;;-0.10;99.90;;;;;;5014602;28;19932;-76
2021/12/22 11:39:57;;;;;;;;;;;0.00;99.90;;;;;;5001578;28;20004;-74
2021/12/22 11:42:27;;;;;;;;;;;0.10;99.90;;;;;;5015461;28;19960;-76
2021/12/22 11:44:59;;;;;;;;;;;0.30;99.90;;;;;;5016540;28;20347;-77
2021/12/22 11:47:33;;;;;;;;;;;0.40;99.90;;;;;;4999140;28;19925;-76
2021/12/22 11:50:13;;;;;;;;;;;0.50;99.90;;;;;;5013695;28;19921;-76
2021/12/22 11:52:40;;;;;;;;;;;0.60;99.90;;;;;;5004012;28;19921;-76
2021/12/22 11:55:16;;;;;;;;;;;0.60;99.90;;;;;;5018208;28;19922;-76
2021/12/22 11:57:43;;;;;;;;;;;0.70;99.90;;;;;;4996155;28;19930;-76
2021/12/22 12:00:29;;;;;;;;;;;0.70;99.90;;;;;;4996111;28;20389;-76
2021/12/22 12:02:56;;;;;;;;;;;0.70;99.90;;;;;;5011713;28;19971;-76
2021/12/22 12:05:28;;;;;;;;;;;0.90;99.90;;;;;;5018554;28;19933;-76
2021/12/22 12:08:01;;;;;;;;;;;1.20;99.90;;;;;;5051838;28;19921;-76
2021/12/22 12:10:45;;;;;;;;;;;1.40;99.90;;;;;;5034795;28;20518;-76
2021/12/22 12:13:38;;;;;;;;;;;1.50;99.90;;;;;;5013362;28;20278;-76
2021/12/22 12:22:07;;;;;;;;;;;1.50;99.90;;;;;;5014443;28;20120;-78
2021/12/22 12:24:51;;;;;;;;;;;1.40;99.90;;;;;;5009559;28;19921;-77
2021/12/22 12:27:39;;;;;;;;;;;1.20;99.90;;;;;;4996437;28;19973;-77
2021/12/22 12:30:10;;;;;;;;;;;1.10;99.90;;;;;;4995792;28;19921;-78
2021/12/22 12:32:40;;;;;;;;;;;1.00;99.90;;;;;;4998070;28;20425;-77
2021/12/22 12:35:33;;;;;;;;;;;1.00;99.90;;;;;;5015627;28;20262;-78
2021/12/22 12:38:30;;;;;;;;;;;1.00;99.90;;;;;;5023474;28;19926;-77
2021/12/22 12:41:11;;;;;;;;;;;1.10;99.90;;;;;;5002667;28;19964;-78
2021/12/22 12:43:42;;;;;;;;;;;1.40;99.90;;;;;;5008398;28;19933;-78
2021/12/22 12:46:29;;;;;;;;;;;1.50;99.90;;;;;;4996295;28;20381;-78
2021/12/22 12:49:17;;;;;;;;;;;1.60;99.90;;;;;;5001161;28;19921;-77
2021/12/22 12:51:47;;;;;;;;;;;1.60;99.90;;;;;;5011110;28;19928;-77
2021/12/22 12:54:42;;;;;;;;;;;1.50;99.90;;;;;;5010992;28;19921;-76
2021/12/22 12:57:16;;;;;;;;;;;1.40;99.90;;;;;;5004346;28;20008;-77
2021/12/22 12:59:50;;;;;;;;;;;1.30;99.90;;;;;;4995169;28;20389;-76
2021/12/22 13:02:23;;;;;;;;;;;1.30;99.90;;;;;;5002657;28;19922;-75
2021/12/22 13:04:57;;;;;;;;;;;1.30;99.90;;;;;;4996200;28;20269;-75
2021/12/22 13:07:23;;;;;;;;;;;1.20;99.90;;;;;;5022778;28;20021;-75
2021/12/22 13:09:54;;;;;;;;;;;1.10;99.90;;;;;;5007377;28;20359;-75
2021/12/22 13:17:42;;;;;;;;;;;0.80;99.90;;;;;;5028829;28;19925;-75
2021/12/22 13:20:12;;;;;;;;;;;0.70;99.90;;;;;;5013734;28;20352;-75
2021/12/22 13:22:46;;;;;;;;;;;0.70;99.90;;;;;;5011481;28;19929;-75
2021/12/22 13:25:19;;;;;;;;;;;0.60;99.90;;;;;;5011398;28;19925;-75
2021/12/22 13:27:49;;;;;;;;;;;0.60;99.90;;;;;;5027990;28;19921;-75
2021/12/22 13:30:16;;;;;;;;;;;0.60;99.90;;;;;;5011184;28;19922;-75
2021/12/22 13:33:07;;;;;;;;;;;0.50;99.90;;;;;;5013859;28;19932;-75
2021/12/22 13:35:40;;;;;;;;;;;0.50;99.90;;;;;;5010586;28;20365;-75
2021/12/22 13:38:23;;;;;;;;;;;0.40;99.90;;;;;;4996493;28;19929;-75
2021/12/22 13:40:54;;;;;;;;;;;0.40;99.90;;;;;;5019340;28;19921;-76
2021/12/22 13:43:28;;;;;;;;;;;0.30;99.90;;;;;;5029021;28;19926;-75
2021/12/22 13:46:15;;;;;;;;;;;0.20;99.90;;;;;;5033904;28;19921;-75
2021/12/22 13:48:49;;;;;;;;;;;0.10;99.90;;;;;;5030864;28;19928;-75
2021/12/22 13:51:17;;;;;;;;;;;0.10;99.90;;;;;;5017701;28;19928;-75
2021/12/22 13:53:43;;;;;;;;;;;0.00;99.90;;;;;;5032940;28;19928;-75
2021/12/22 13:56:11;;;;;;;;;;;-0.10;99.90;;;;;;5012983;28;19925;-75
2021/12/22 13:58:39;;;;;;;;;;;-0.20;99.90;;;;;;5006370;28;19980;-75
2021/12/22 14:01:12;;;;;;;;;;;-0.30;99.90;;;;;;5014083;28;19957;-76
2021/12/22 14:03:38;;;;;;;;;;;-0.30;99.90;;;;;;5019730;28;20377;-76
2021/12/22 14:06:04;;;;;;;;;;;-0.30;99.90;;;;;;5016708;28;19922;-76
2021/12/22 14:08:30;;;;;;;;;;;-0.40;99.90;;;;;;5000966;28;20460;-76
2021/12/22 14:10:55;;;;;;;;;;;-0.40;99.90;;;;;;5002439;28;19956;-76
2021/12/22 14:13:27;;;;;;;;;;;-0.40;99.90;;;;;;5001126;28;20317;-76
2021/12/22 14:15:53;;;;;;;;;;;-0.50;99.90;;;;;;5000713;28;19926;-76
2021/12/22 14:18:19;;;;;;;;;;;-0.50;99.90;;;;;;5001233;28;19974;-76
2021/12/22 14:20:48;;;;;;;;;;;-0.40;99.90;;;;;;5011930;28;19921;-76
2021/12/22 14:23:23;;;;;;;;;;;-0.40;99.90;;;;;;5020655;28;19928;-76
2021/12/22 14:26:03;;;;;;;;;;;-0.50;99.90;;;;;;5020352;28;19974;-76
2021/12/22 14:28:35;;;;;;;;;;;-0.50;99.90;;;;;;5000977;28;20048;-76
2021/12/22 14:31:07;;;;;;;;;;;-0.50;99.90;;;;;;5000414;28;19921;-76
2021/12/22 14:33:33;;;;;;;;;;;-0.50;99.90;;;;;;5029255;28;19921;-76
2021/12/22 14:36:15;;;;;;;;;;;-0.60;99.90;;;;;;5016917;28;20301;-75
2021/12/22 14:38:49;;;;;;;;;;;-0.70;99.90;;;;;;5018188;28;19922;-75
2021/12/22 14:41:32;;;;;;;;;;;-0.70;99.90;;;;;;5016927;28;19929;-76
2021/12/22 14:44:00;;;;;;;;;;;-0.80;99.90;;;;;;5000368;28;19921;-76
2021/12/22 14:46:30;;;;;;;;;;;-0.80;99.90;;;;;;5001206;28;19922;-76
2021/12/22 14:48:58;;;;;;;;;;;-0.90;99.90;;;;;;5016794;28;19971;-76
2021/12/22 14:51:27;;;;;;;;;;;-1.00;99.90;;;;;;5000860;28;19925;-76